Time;durP1;ratioP1;P1;durP2;ratioP2;P2;SDS_P1;SDS_P2;PMS_P1;PMS_P2;Temp;Humidity;BMP_temperature;BMP_pressure;BME280_temperature;BME280_humidity;BME280_pressure;Samples;Min_cycle;Max_cycle;Signal;HPM_P1;HPM_P2
2022/04/04 00:02:06;;;;;;;4.45;3.42;;;;;;;11.04;50.05;99658.50;6274466;22;20095;-90
2022/04/04 00:04:31;;;;;;;4.45;3.80;;;;;;;11.29;50.25;99710.19;6274912;22;20000;-90
2022/04/04 00:06:59;;;;;;;5.25;3.83;;;;;;;10.91;50.25;99653.00;6275172;22;20006;-89
2022/04/04 00:09:25;;;;;;;3.90;3.50;;;;;;;10.46;50.28;99583.38;6275022;22;20002;-90
2022/04/04 00:11:51;;;;;;;4.53;3.88;;;;;;;11.26;50.38;99715.81;6275089;22;20003;-89
2022/04/04 00:14:17;;;;;;;4.70;4.30;;;;;;;10.63;50.73;99634.22;6275149;22;20390;-90
2022/04/04 00:16:42;;;;;;;4.35;4.00;;;;;;;10.90;50.25;99681.25;6275184;22;20027;-90
2022/04/04 00:19:08;;;;;;;5.43;4.38;;;;;;;11.03;50.78;99713.16;6274961;22;20000;-90
2022/04/04 00:21:33;;;;;;;4.78;4.30;;;;;;;11.18;51.10;99738.84;6275172;22;20033;-90
2022/04/04 00:23:59;;;;;;;7.55;4.55;;;;;;;11.25;50.89;99751.19;6274789;22;20003;-90
2022/04/04 00:26:24;;;;;;;5.10;4.70;;;;;;;10.46;50.76;99644.09;6274806;22;20031;-90
2022/04/04 00:28:50;;;;;;;6.53;5.03;;;;;;;10.33;50.54;99618.22;6275019;22;20005;-90
2022/04/04 00:31:17;;;;;;;4.95;4.45;;;;;;;10.73;50.97;99696.38;6274649;22;20030;-90
2022/04/04 00:33:43;;;;;;;5.22;4.72;;;;;;;10.14;51.03;99598.38;6274713;22;19995;-90
2022/04/04 00:36:08;;;;;;;5.60;5.10;;;;;;;10.42;51.08;99642.78;6274968;22;20078;-90
2022/04/04 00:38:34;;;;;;;5.35;4.85;;;;;;;9.87;51.30;99591.75;6274789;22;20181;-90
2022/04/04 00:40:59;;;;;;;6.88;5.70;;;;;;;10.23;51.45;99678.31;6274759;22;20014;-90
2022/04/04 00:43:25;;;;;;;5.70;5.10;;;;;;;10.47;51.24;99686.16;6274679;22;19996;-91
2022/04/04 00:45:50;;;;;;;5.78;5.18;;;;;;;10.29;51.59;99682.09;6274706;22;20004;-90
2022/04/04 00:48:16;;;;;;;6.13;5.10;;;;;;;9.21;51.24;99503.38;6274607;22;20004;-90
2022/04/04 00:50:41;;;;;;;6.65;5.82;;;;;;;9.90;51.35;99637.22;6274673;22;20011;-89
2022/04/04 00:53:09;;;;;;;5.55;5.00;;;;;;;10.56;51.74;99763.47;6274623;22;20041;-90
2022/04/04 00:55:35;;;;;;;9.25;6.43;;;;;;;10.43;51.87;99731.53;6274671;22;20003;-91
2022/04/04 00:58:01;;;;;;;7.03;6.15;;;;;;;9.77;51.76;99654.41;6274610;22;20000;-90
2022/04/04 01:00:26;;;;;;;8.07;6.95;;;;;;;10.38;51.59;99734.66;6274290;22;20004;-90
2022/04/04 01:02:52;;;;;;;8.25;7.20;;;;;;;10.35;51.47;99726.28;6273963;22;20018;-90
2022/04/04 01:05:18;;;;;;;8.38;7.55;;;;;;;9.45;51.85;99657.13;6274471;22;20368;-90
2022/04/04 01:07:43;;;;;;;7.90;7.10;;;;;;;10.08;51.77;99709.03;6274534;22;20483;-90
2022/04/04 01:10:09;;;;;;;7.60;6.85;;;;;;;10.43;51.44;99781.69;6274504;22;20030;-89
2022/04/04 01:12:35;;;;;;;9.82;8.93;;;;;;;10.55;51.28;99758.38;6274677;22;19999;-90
2022/04/04 01:15:01;;;;;;;9.68;8.70;;;;;;;8.74;50.91;99527.00;6274592;22;20003;-90
2022/04/04 01:17:27;;;;;;;9.10;8.20;;;;;;;9.87;51.30;99689.31;6274317;22;20087;-90
2022/04/04 01:19:53;;;;;;;11.52;10.43;;;;;;;9.53;50.24;99638.66;6274554;22;20007;-90
2022/04/04 01:22:19;;;;;;;11.73;10.52;;;;;;;9.85;49.98;99688.69;6274184;22;20074;-90
2022/04/04 01:24:44;;;;;;;12.23;11.00;;;;;;;9.72;50.10;99685.75;6274580;22;20034;-90
2022/04/04 01:27:14;;;;;;;11.95;10.75;;;;;;;10.07;49.97;99742.50;6274278;22;19996;-90
2022/04/04 01:29:41;;;;;;;11.73;10.57;;;;;;;10.11;49.76;99767.56;6274179;22;19996;-90
2022/04/04 01:32:07;;;;;;;12.90;10.20;;;;;;;9.58;49.71;99649.50;6274147;22;20344;-91
2022/04/04 01:34:33;;;;;;;11.82;10.63;;;;;;;10.42;49.67;99777.41;6274161;22;20003;-90
2022/04/04 01:36:59;;;;;;;12.38;11.18;;;;;;;9.57;49.42;99647.88;6274166;22;20403;-90
2022/04/04 01:39:24;;;;;;;12.77;11.57;;;;;;;9.06;49.36;99589.34;6274293;22;19995;-90
2022/04/04 01:41:50;;;;;;;12.73;11.43;;;;;;;8.83;49.58;99554.13;6274665;22;20034;-90
2022/04/04 01:44:16;;;;;;;12.57;10.70;;;;;;;9.81;49.78;99712.91;6274669;22;20045;-91
2022/04/04 01:46:41;;;;;;;13.23;11.13;;;;;;;9.76;49.50;99710.78;6274449;22;20000;-91
2022/04/04 01:49:07;;;;;;;12.60;11.40;;;;;;;8.33;49.40;99480.63;6274412;22;20003;-91
2022/04/04 01:51:35;;;;;;;11.77;10.30;;;;;;;9.33;49.21;99640.00;6275663;22;20010;-90
2022/04/04 01:54:01;;;;;;;12.38;10.35;;;;;;;9.48;48.82;99673.41;6274260;22;19996;-90
2022/04/04 01:56:27;;;;;;;13.15;11.80;;;;;;;9.81;48.92;99745.38;6299903;22;20143;-89
2022/04/04 01:58:54;;;;;;;13.93;12.50;;;;;;;10.39;48.77;99817.31;6274101;22;20057;-91
2022/04/04 02:01:24;;;;;;;13.45;12.13;;;;;;;10.37;48.36;99806.09;6273828;22;20020;-91
2022/04/04 02:03:56;;;;;;;12.32;11.02;;;;;;;10.38;48.42;99800.66;6274297;22;20000;-90
2022/04/04 02:06:23;;;;;;;13.15;11.85;;;;;;;10.21;48.53;99775.31;6274125;22;20517;-91
2022/04/04 02:08:50;;;;;;;12.80;11.45;;;;;;;10.30;48.63;99799.84;6273802;22;20454;-90
2022/04/04 02:11:19;;;;;;;12.60;11.27;;;;;;;9.26;48.75;99657.47;6274107;22;19996;-90
2022/04/04 02:13:45;;;;;;;13.00;11.60;;;;;;;9.34;48.50;99663.56;6274000;22;20444;-90
2022/04/04 02:16:11;;;;;;;13.75;11.93;;;;;;;9.70;49.00;99721.19;6273950;22;20000;-90
2022/04/04 02:18:36;;;;;;;13.80;12.38;;;;;;;9.34;48.71;99671.47;6273815;22;20006;-91
2022/04/04 02:21:03;;;;;;;14.75;13.25;;;;;;;9.21;48.58;99668.50;6273979;22;20007;-91
2022/04/04 02:23:28;;;;;;;13.48;12.18;;;;;;;9.46;48.53;99695.66;6275553;22;20079;-91
2022/04/04 02:25:55;;;;;;;14.23;12.80;;;;;;;10.11;48.21;99806.31;6273724;22;19995;-91
2022/04/04 02:28:21;;;;;;;14.68;13.18;;;;;;;9.77;48.03;99762.53;6273910;22;20004;-90
2022/04/04 02:30:49;;;;;;;14.73;13.23;;;;;;;9.59;47.75;99711.78;6273525;22;20066;-91
2022/04/04 02:33:15;;;;;;;14.27;12.88;;;;;;;10.14;47.42;99793.59;6273577;22;20006;-90
2022/04/04 02:35:40;;;;;;;14.55;13.05;;;;;;;10.16;47.53;99801.34;6273626;22;20012;-91
2022/04/04 02:38:07;;;;;;;14.85;12.85;;;;;;;10.16;47.32;99812.72;6273583;22;20003;-91
2022/04/04 02:40:33;;;;;;;13.90;12.50;;;;;;;10.17;47.16;99801.19;6273514;22;20433;-90
2022/04/04 02:42:58;;;;;;;14.25;12.85;;;;;;;9.54;47.31;99722.00;6273202;22;20003;-90
2022/04/04 02:45:24;;;;;;;13.57;12.18;;;;;;;8.98;47.01;99639.41;6273249;22;20010;-91
2022/04/04 02:47:49;;;;;;;14.82;13.32;;;;;;;9.53;47.20;99737.00;6273601;22;20071;-90
2022/04/04 02:50:16;;;;;;;15.98;13.80;;;;;;;9.63;47.48;99752.63;6273954;22;20086;-90
2022/04/04 02:52:43;;;;;;;15.90;14.27;;;;;;;10.03;47.29;99815.06;6273825;22;19996;-91
2022/04/04 02:57:55;;;;;;;14.77;13.27;;;;;;;9.83;47.76;99819.88;6275291;22;20030;-91
2022/04/04 03:00:23;;;;;;;14.48;13.02;;;;;;;8.74;47.78;99699.91;6273797;22;20006;-91
2022/04/04 03:02:51;;;;;;;16.05;14.38;;;;;;;9.79;47.87;99836.19;6273777;22;20014;-90
2022/04/04 03:05:17;;;;;;;15.50;13.95;;;;;;;8.91;47.53;99707.66;6299824;22;20008;-91
2022/04/04 03:07:42;;;;;;;16.83;15.23;;;;;;;9.24;47.65;99750.69;6273830;22;20031;-90
2022/04/04 03:10:09;;;;;;;15.05;13.60;;;;;;;9.83;47.65;99833.06;6273288;22;20357;-91
2022/04/04 03:12:42;;;;;;;15.90;14.18;;;;;;;9.68;47.62;99828.63;6275026;22;19992;-91
2022/04/04 03:15:29;;;;;;;16.65;14.27;;;;;;;9.21;47.27;99761.53;6273572;22;19995;-91
2022/04/04 03:17:56;;;;;;;15.23;13.63;;;;;;;9.65;47.76;99805.19;6273491;22;19996;-91
2022/04/04 03:20:23;;;;;;;15.45;13.45;;;;;;;8.84;47.86;99716.38;6273497;22;20015;-91
2022/04/04 03:22:52;;;;;;;16.15;14.38;;;;;;;8.81;47.60;99685.94;6273897;22;20074;-91
2022/04/04 03:25:18;;;;;;;15.95;14.35;;;;;;;9.69;47.61;99856.63;6273577;22;20034;-91
2022/04/04 03:27:45;;;;;;;15.35;13.77;;;;;;;9.00;47.87;99747.19;6273657;22;20031;-91
2022/04/04 03:30:13;;;;;;;18.40;16.35;;;;;;;9.57;48.29;99833.19;6274808;22;20400;-91
2022/04/04 03:32:39;;;;;;;17.75;15.82;;;;;;;9.10;48.32;99790.84;6277350;22;19992;-91
2022/04/04 03:35:06;;;;;;;17.65;15.85;;;;;;;9.35;48.02;99823.31;6276360;22;20078;-91
2022/04/04 03:37:33;;;;;;;16.58;14.88;;;;;;;8.94;48.20;99775.00;6275847;22;20442;-91
2022/04/04 03:39:59;;;;;;;16.70;14.93;;;;;;;8.75;48.10;99759.47;6275675;22;19995;-91
2022/04/04 03:42:25;;;;;;;16.00;14.30;;;;;;;8.43;48.28;99707.56;6275415;22;19999;-91
2022/04/04 03:44:50;;;;;;;17.52;15.70;;;;;;;9.36;48.54;99887.38;6275228;22;20078;-91
2022/04/04 03:47:16;;;;;;;16.90;14.82;;;;;;;9.18;48.53;99861.16;6275415;22;20456;-91
2022/04/04 03:49:43;;;;;;;16.88;15.18;;;;;;;7.48;48.45;99604.28;6275248;22;20026;-91
2022/04/04 03:52:10;;;;;;;15.75;14.05;;;;;;;9.29;48.43;99857.38;6275421;22;20003;-91
2022/04/04 03:54:36;;;;;;;18.40;16.40;;;;;;;9.50;48.34;99884.09;6275738;22;20010;-91
2022/04/04 03:57:02;;;;;;;17.33;15.38;;;;;;;9.05;48.21;99821.28;6275244;22;20082;-91
2022/04/04 03:59:28;;;;;;;18.05;16.05;;;;;;;8.74;48.23;99778.88;6275329;22;20007;-91
2022/04/04 04:01:53;;;;;;;17.00;15.20;;;;;;;9.18;48.42;99837.44;6275295;22;20024;-91
2022/04/04 04:04:19;;;;;;;17.30;15.40;;;;;;;8.96;48.38;99822.25;6275235;22;20357;-91
2022/04/04 04:06:48;;;;;;;17.83;15.98;;;;;;;8.19;48.16;99682.81;6275449;22;20027;-91
2022/04/04 04:09:13;;;;;;;17.58;15.52;;;;;;;8.46;48.07;99741.47;6275619;22;20098;-91
2022/04/04 04:11:39;;;;;;;17.88;15.25;;;;;;;8.79;48.13;99845.88;6275614;22;20027;-92
2022/04/04 04:14:05;;;;;;;16.92;15.23;;;;;;;9.04;47.98;99840.72;6277006;22;19996;-91
2022/04/04 04:16:31;;;;;;;16.92;14.70;;;;;;;9.43;48.09;99910.28;6275570;22;19996;-91
2022/04/04 04:18:57;;;;;;;16.67;14.93;;;;;;;8.70;47.54;99817.88;6275984;22;19999;-91
2022/04/04 04:21:23;;;;;;;19.42;15.43;;;;;;;9.42;48.00;99913.06;6275912;22;20500;-91
2022/04/04 04:23:48;;;;;;;19.20;15.10;;;;;;;8.49;47.64;99789.34;6277526;22;20004;-92
2022/04/04 04:26:14;;;;;;;14.15;12.50;;;;;;;8.59;47.69;99771.59;6303787;22;20065;-91
2022/04/04 04:28:45;;;;;;;17.23;13.73;;;;;;;9.26;47.55;99869.06;6303464;22;19980;-91
2022/04/04 04:31:10;;;;;;;14.73;13.23;;;;;;;8.48;47.24;99786.84;6304020;22;20067;-92
2022/04/04 04:33:36;;;;;;;17.58;15.77;;;;;;;8.67;47.57;99802.38;6277723;22;20000;-91
2022/04/04 04:36:02;;;;;;;14.80;12.95;;;;;;;9.13;47.58;99851.09;6275420;22;19999;-91
2022/04/04 04:38:30;;;;;;;14.88;12.40;;;;;;;9.03;47.43;99866.22;6275164;22;20003;-91
2022/04/04 04:40:55;;;;;;;14.50;12.98;;;;;;;8.28;46.62;99738.91;6275154;22;20402;-91
2022/04/04 04:43:21;;;;;;;14.95;12.65;;;;;;;9.54;46.77;99951.31;6274884;22;20007;-91
2022/04/04 04:45:46;;;;;;;14.60;11.73;;;;;;;8.38;46.20;99746.69;6275320;22;20007;-91
2022/04/04 04:48:12;;;;;;;14.18;12.48;;;;;;;8.91;46.06;99870.94;6275059;22;20003;-91
2022/04/04 04:50:38;;;;;;;14.98;12.63;;;;;;;9.41;46.05;99957.06;6275007;22;20045;-91
2022/04/04 04:53:03;;;;;;;15.82;12.18;;;;;;;9.41;46.25;99924.59;6274958;22;20353;-91
2022/04/04 04:55:30;;;;;;;14.13;12.27;;;;;;;9.20;46.20;99925.03;6274908;22;20007;-91
2022/04/04 04:57:57;;;;;;;14.65;13.20;;;;;;;9.06;46.26;99896.69;6274889;22;20352;-91
2022/04/04 05:00:26;;;;;;;14.38;12.95;;;;;;;9.46;46.04;99967.94;6274992;22;20054;-91
2022/04/04 05:03:24;;;;;;;15.80;14.15;;;;;;;9.75;45.89;99974.63;6274942;22;20011;-91
2022/04/04 05:05:39;;;;;;;15.02;13.40;;;;;;;9.27;45.60;99947.13;6276297;22;19999;-90
2022/04/04 05:08:05;;;;;;;16.50;13.73;;;;;;;8.88;45.70;99865.16;6274687;22;20003;-91
2022/04/04 05:10:31;;;;;;;14.02;12.25;;;;;;;8.91;45.70;99855.13;6274666;22;20441;-90
2022/04/04 05:12:56;;;;;;;15.00;11.18;;;;;;;8.97;44.75;99877.41;6274537;22;20003;-90
2022/04/04 05:15:23;;;;;;;12.02;10.82;;;;;;;9.10;44.78;99882.22;6274412;22;20007;-90
2022/04/04 05:17:49;;;;;;;12.27;10.80;;;;;;;9.90;44.41;99996.75;6274334;22;20034;-91
2022/04/04 05:20:15;;;;;;;11.75;10.55;;;;;;;8.60;44.07;99786.41;6274564;22;19999;-91
2022/04/04 05:22:40;;;;;;;11.88;10.60;;;;;;;9.05;43.97;99868.69;6274393;22;20010;-91
2022/04/04 05:25:06;;;;;;;14.82;10.45;;;;;;;9.03;44.24;99886.47;6274450;22;20091;-90
2022/04/04 05:27:31;;;;;;;12.23;10.95;;;;;;;9.51;43.95;99976.19;6273626;22;20000;-90
2022/04/04 05:29:57;;;;;;;13.93;12.40;;;;;;;9.39;43.85;99950.28;6275865;22;20000;-90
2022/04/04 05:32:22;;;;;;;13.80;11.88;;;;;;;9.23;43.82;99958.97;6274599;22;20023;-90
2022/04/04 05:34:48;;;;;;;11.98;10.77;;;;;;;9.41;43.97;99970.22;6274452;22;20434;-90
2022/04/04 05:37:13;;;;;;;13.35;11.60;;;;;;;8.95;43.66;99889.06;6275621;22;20000;-89
2022/04/04 05:39:39;;;;;;;11.68;10.57;;;;;;;9.75;43.51;100014.19;6274197;22;19999;-90
2022/04/04 05:42:05;;;;;;;13.32;11.98;;;;;;;9.77;43.51;100022.75;6272377;22;20038;-90
2022/04/04 05:44:32;;;;;;;12.75;11.40;;;;;;;9.24;43.64;99952.72;6273229;22;20084;-90
2022/04/04 05:46:58;;;;;;;12.00;10.80;;;;;;;9.68;44.08;100008.72;6274021;22;20074;-91
2022/04/04 05:49:24;;;;;;;12.23;10.45;;;;;;;8.53;43.52;99816.97;6274057;22;20000;-91
2022/04/04 05:51:49;;;;;;;14.07;11.32;;;;;;;8.86;43.98;99854.78;6273905;22;20011;-90
2022/04/04 05:54:15;;;;;;;14.18;10.32;;;;;;;9.01;43.72;99870.00;6273108;22;20061;-91
2022/04/04 05:56:43;;;;;;;12.85;11.55;;;;;;;10.05;43.21;100039.13;6272789;22;20006;-90
2022/04/04 05:59:09;;;;;;;12.93;10.48;;;;;;;9.26;43.42;99915.69;6273914;22;20006;-90
2022/04/04 06:01:35;;;;;;;11.95;10.43;;;;;;;9.99;43.23;100055.59;6271534;22;20050;-90
2022/04/04 06:04:00;;;;;;;14.40;12.07;;;;;;;9.95;43.38;100035.81;6271709;22;20004;-90
2022/04/04 06:06:26;;;;;;;11.45;10.27;;;;;;;9.20;43.41;99909.25;6273033;22;20003;-89
2022/04/04 06:08:52;;;;;;;12.73;11.43;;;;;;;8.96;43.59;99888.09;6271867;22;20000;-91
2022/04/04 06:11:17;;;;;;;12.18;10.75;;;;;;;9.20;43.23;99898.69;6271463;22;20010;-90
2022/04/04 06:13:43;;;;;;;12.55;11.20;;;;;;;9.47;43.07;99945.88;6272323;22;20071;-90
2022/04/04 06:16:09;;;;;;;11.98;10.63;;;;;;;9.88;42.70;99996.06;6272430;22;20000;-91
2022/04/04 06:18:35;;;;;;;16.05;13.43;;;;;;;9.64;42.86;99953.81;6272728;22;20033;-90
2022/04/04 06:21:02;;;;;;;12.63;11.20;;;;;;;9.18;43.15;99890.97;6272273;22;20457;-90
2022/04/04 06:23:28;;;;;;;15.63;14.10;;;;;;;9.64;42.79;99964.34;6273207;22;20045;-90
2022/04/04 06:25:54;;;;;;;12.93;10.13;;;;;;;9.84;42.79;99978.94;6272230;22;20421;-89
2022/04/04 06:28:19;;;;;;;12.77;11.40;;;;;;;9.67;43.06;99966.69;6273112;22;20030;-90
2022/04/04 06:30:45;;;;;;;11.13;10.00;;;;;;;10.02;42.62;99999.88;6272646;22;20003;-89
2022/04/04 06:33:11;;;;;;;13.40;11.13;;;;;;;10.39;42.57;100050.41;6272177;22;20072;-89
2022/04/04 06:35:37;;;;;;;15.32;13.32;;;;;;;9.84;42.09;99956.03;6271630;22;20563;-89
2022/04/04 06:38:03;;;;;;;12.82;11.43;;;;;;;10.10;42.19;99979.63;6272564;22;20026;-89
2022/04/04 06:40:30;;;;;;;13.35;11.95;;;;;;;9.40;41.99;99859.72;6272267;22;20007;-90
2022/04/04 06:42:56;;;;;;;13.95;11.48;;;;;;;10.40;42.20;100009.84;6270847;22;20038;-89
2022/04/04 06:45:22;;;;;;;12.00;10.60;;;;;;;10.67;41.81;100055.41;6272561;22;20004;-89
2022/04/04 06:47:48;;;;;;;11.43;10.27;;;;;;;10.64;41.91;100090.06;6272697;22;19995;-89
2022/04/04 06:50:13;;;;;;;12.13;10.57;;;;;;;10.41;42.09;100027.34;6271774;22;20008;-88
2022/04/04 06:52:40;;;;;;;12.35;11.05;;;;;;;9.99;42.01;99926.34;6298646;22;20083;-89
2022/04/04 06:55:07;;;;;;;12.35;11.10;;;;;;;10.81;41.76;100049.44;6272186;22;20047;-89
2022/04/04 06:57:32;;;;;;;12.18;10.13;;;;;;;10.31;41.58;99986.25;6297219;22;20007;-89
2022/04/04 06:59:58;;;;;;;12.20;10.60;;;;;;;9.93;41.63;99896.19;6271987;22;20086;-89
2022/04/04 07:02:23;;;;;;;12.05;10.85;;;;;;;10.55;41.63;100019.75;6273756;22;20020;-89
2022/04/04 07:04:49;;;;;;;12.63;10.38;;;;;;;10.60;41.52;99991.03;6272534;22;20007;-90
2022/04/04 07:07:17;;;;;;;11.68;10.32;;;;;;;10.26;41.45;99938.41;6273181;22;20127;-89
2022/04/04 07:09:43;;;;;;;13.02;10.30;;;;;;;10.16;40.88;99891.88;6274560;22;19999;-89
2022/04/04 07:12:09;;;;;;;12.13;10.93;;;;;;;10.64;41.05;99955.38;6273097;22;20350;-89
2022/04/04 07:14:35;;;;;;;14.77;12.30;;;;;;;10.96;40.99;100016.06;6272376;22;20077;-89
2022/04/04 07:17:02;;;;;;;14.13;11.82;;;;;;;10.75;40.86;99957.66;6274098;22;20000;-89
2022/04/04 07:19:33;;;;;;;12.95;11.07;;;;;;;11.17;40.97;100030.56;6271557;22;20007;-89
2022/04/04 07:22:01;;;;;;;12.02;10.35;;;;;;;11.25;40.33;100031.34;6273751;22;20075;-89
2022/04/04 07:24:28;;;;;;;11.40;10.20;;;;;;;11.84;40.49;100083.88;6272369;22;19999;-89
2022/04/04 07:26:54;;;;;;;11.50;10.30;;;;;;;11.27;40.18;100008.22;6272053;22;20030;-89
2022/04/04 07:29:19;;;;;;;12.13;10.85;;;;;;;11.07;40.75;100002.47;6271772;22;20497;-88
2022/04/04 07:31:45;;;;;;;11.15;9.93;;;;;;;11.83;40.39;100116.63;6272218;22;20098;-89
2022/04/04 07:34:10;;;;;;;11.70;10.57;;;;;;;11.76;40.31;100103.22;6271917;22;20003;-89
2022/04/04 07:36:37;;;;;;;12.02;10.73;;;;;;;10.40;40.44;99861.19;6271651;22;20142;-89
2022/04/04 07:39:04;;;;;;;13.93;12.52;;;;;;;11.93;40.32;100090.81;6273608;22;19999;-88
2022/04/04 07:41:29;;;;;;;13.02;11.35;;;;;;;11.05;40.28;99966.66;6273806;22;20049;-88
2022/04/04 07:43:55;;;;;;;10.95;9.85;;;;;;;11.20;40.46;99961.50;6272330;22;20029;-89
2022/04/04 07:46:21;;;;;;;12.07;10.88;;;;;;;11.59;39.81;100001.13;6272431;22;20357;-88
2022/04/04 07:48:47;;;;;;;11.98;10.68;;;;;;;11.55;39.71;100000.66;6271451;22;19999;-87
2022/04/04 07:51:13;;;;;;;9.98;8.98;;;;;;;11.46;39.70;99970.78;6274140;22;20000;-86
2022/04/04 07:53:38;;;;;;;11.63;10.43;;;;;;;11.21;40.15;99931.44;6271529;22;20452;-88
2022/04/04 07:56:04;;;;;;;9.68;8.77;;;;;;;12.19;39.33;100075.44;6270412;22;20006;-88
2022/04/04 07:58:30;;;;;;;14.20;12.70;;;;;;;11.96;39.58;100019.84;6273216;22;20412;-88
2022/04/04 08:00:59;;;;;;;13.13;10.70;;;;;;;12.53;38.82;100096.22;6271285;22;20073;-87
2022/04/04 08:03:24;;;;;;;12.13;10.82;;;;;;;12.45;38.49;100083.03;6271570;22;20011;-86
2022/04/04 08:05:50;;;;;;;10.48;9.38;;;;;;;12.11;38.09;100011.13;6271569;22;20010;-87
2022/04/04 08:08:15;;;;;;;11.45;10.35;;;;;;;12.22;38.08;100010.72;6274507;22;19995;-87
2022/04/04 08:10:42;;;;;;;9.52;8.50;;;;;;;11.41;38.09;99893.81;6271316;22;20009;-87
2022/04/04 08:13:08;;;;;;;10.57;9.48;;;;;;;12.59;37.95;100061.06;6272732;22;20372;-87
2022/04/04 08:15:34;;;;;;;10.68;9.13;;;;;;;12.76;37.87;100058.31;6273084;22;20019;-87
2022/04/04 08:17:59;;;;;;;10.25;9.20;;;;;;;12.97;37.81;100069.84;6274256;22;20003;-88
2022/04/04 08:20:25;;;;;;;10.10;8.82;;;;;;;13.30;37.71;100090.75;6273416;22;20000;-86
2022/04/04 08:22:50;;;;;;;10.50;8.63;;;;;;;12.67;37.52;99980.72;6272287;22;20085;-86
2022/04/04 08:25:17;;;;;;;10.50;9.50;;;;;;;12.65;36.90;99983.56;6274790;22;20003;-87
2022/04/04 08:27:43;;;;;;;10.82;8.57;;;;;;;13.22;36.87;100053.72;6272199;22;20034;-87
2022/04/04 08:30:10;;;;;;;9.68;8.77;;;;;;;13.38;36.61;100065.97;6273301;22;20076;-87
2022/04/04 08:32:36;;;;;;;8.75;7.93;;;;;;;13.01;36.39;99993.44;6273056;22;20006;-86
2022/04/04 08:35:04;;;;;;;8.75;7.95;;;;;;;13.57;36.16;100045.03;6274155;22;20361;-87
2022/04/04 08:37:31;;;;;;;8.27;7.47;;;;;;;13.67;36.10;100013.72;6273088;22;19988;-87
2022/04/04 08:39:57;;;;;;;9.18;8.32;;;;;;;13.63;35.31;99972.66;6274451;22;20000;-86
2022/04/04 08:42:27;;;;;;;8.63;7.78;;;;;;;14.05;34.81;100044.56;6272694;22;19995;-86
2022/04/04 08:44:58;;;;;;;8.95;8.15;;;;;;;14.35;34.22;100070.03;6275265;22;20001;-86
2022/04/04 08:47:24;;;;;;;8.63;7.72;;;;;;;13.84;34.26;99968.38;6273913;22;20003;-86
2022/04/04 08:49:54;;;;;;;9.23;8.30;;;;;;;14.13;34.00;100013.44;6299095;22;20003;-87
2022/04/04 08:52:21;;;;;;;8.45;7.57;;;;;;;13.65;34.06;99909.63;6274389;22;20029;-86
2022/04/04 08:54:47;;;;;;;9.88;7.85;;;;;;;14.63;34.14;100057.66;6274541;22;20003;-86
2022/04/04 08:57:12;;;;;;;10.25;8.02;;;;;;;14.63;34.03;100067.47;6275384;22;20005;-87
2022/04/04 08:59:41;;;;;;;8.90;8.05;;;;;;;13.83;34.12;99926.94;6274353;22;20066;-87
2022/04/04 09:02:06;;;;;;;8.30;7.50;;;;;;;14.16;34.38;99996.31;6299692;22;20028;-86
2022/04/04 09:04:33;;;;;;;9.85;8.75;;;;;;;14.73;34.10;100043.22;6275899;22;20437;-87
2022/04/04 09:07:04;;;;;;;10.70;9.60;;;;;;;14.78;33.98;100046.13;6274170;22;20074;-87
2022/04/04 09:09:44;;;;;;;8.93;8.02;;;;;;;14.68;32.46;100019.03;6273874;22;20019;-87
2022/04/04 09:12:11;;;;;;;8.52;7.72;;;;;;;15.05;33.65;100031.19;6275661;22;20003;-88
2022/04/04 09:14:49;;;;;;;8.38;7.57;;;;;;;15.11;32.68;100023.25;6274170;22;20407;-87
2022/04/04 09:17:16;;;;;;;8.48;7.57;;;;;;;14.78;33.00;99937.94;6274155;22;20410;-87
2022/04/04 09:19:43;;;;;;;8.93;8.02;;;;;;;15.31;32.92;100010.06;6274282;22;20003;-87
2022/04/04 09:22:10;;;;;;;7.68;7.03;;;;;;;14.39;33.11;99876.56;6275752;22;20079;-87
2022/04/04 09:24:56;;;;;;;9.23;7.82;;;;;;;14.06;32.68;99863.00;6273713;22;20061;-87
2022/04/04 09:27:36;;;;;;;10.15;9.15;;;;;;;15.29;32.95;99997.97;6272478;22;20441;-87
2022/04/04 09:30:05;;;;;;;8.77;7.72;;;;;;;15.20;32.62;99982.19;6272331;22;20027;-87
2022/04/04 09:32:41;;;;;;;8.80;8.00;;;;;;;15.52;31.59;99993.16;6272939;22;20026;-87
2022/04/04 09:35:09;;;;;;;9.85;7.90;;;;;;;14.51;32.23;99843.16;6274965;22;19996;-87
2022/04/04 09:37:36;;;;;;;12.60;11.30;;;;;;;15.44;32.33;99972.03;6273615;22;20070;-87
2022/04/04 09:40:05;;;;;;;6.88;6.18;;;;;;;15.50;31.97;99968.59;6273628;22;20057;-87
2022/04/04 09:42:32;;;;;;;7.82;6.07;;;;;;;15.06;31.76;99874.09;6273747;22;20089;-87
2022/04/04 09:45:16;;;;;;;8.68;7.30;;;;;;;15.77;30.23;99949.06;6270520;22;20069;-87
2022/04/04 09:47:54;;;;;;;7.22;6.50;;;;;;;15.84;30.57;99952.56;6274209;22;19996;-87
2022/04/04 09:50:30;;;;;;;8.02;6.40;;;;;;;15.82;31.13;99949.28;6298871;22;20019;-87
2022/04/04 09:52:57;;;;;;;6.32;5.72;;;;;;;15.37;30.96;99905.50;6272887;22;20076;-86
2022/04/04 09:55:43;;;;;;;6.68;5.50;;;;;;;15.52;29.82;99945.25;6271175;22;20467;-86
2022/04/04 09:58:17;;;;;;;7.97;7.22;;;;;;;15.02;31.41;99902.09;6274819;22;20094;-87
2022/04/04 10:00:44;;;;;;;6.28;5.68;;;;;;;14.93;31.39;99890.00;6274521;22;20007;-87
2022/04/04 10:03:14;;;;;;;7.38;6.75;;;;;;;14.43;31.27;99806.94;6272475;22;20046;-87
2022/04/04 10:06:00;;;;;;;8.23;7.03;;;;;;;15.24;30.78;99940.03;6272123;22;20331;-87
2022/04/04 10:08:26;;;;;;;6.22;5.63;;;;;;;15.27;31.12;99940.47;6272342;22;20003;-87
2022/04/04 10:10:54;;;;;;;6.68;5.97;;;;;;;14.57;31.28;99856.47;6273197;22;19996;-87
2022/04/04 10:13:20;;;;;;;7.35;6.47;;;;;;;15.29;31.16;99912.84;6271471;22;20068;-87
2022/04/04 10:15:46;;;;;;;6.32;5.82;;;;;;;15.65;30.67;99948.03;6272320;22;19999;-86
2022/04/04 10:18:12;;;;;;;6.68;6.07;;;;;;;14.92;30.76;99797.97;6273272;22;20003;-87
2022/04/04 10:20:37;;;;;;;10.50;9.50;;;;;;;15.94;30.75;99940.69;6272149;22;20023;-86
2022/04/04 10:23:06;;;;;;;6.93;6.32;;;;;;;15.55;30.73;99846.38;6272288;22;20004;-86
2022/04/04 10:25:34;;;;;;;6.40;5.82;;;;;;;15.97;29.97;99849.75;6273358;22;20070;-86
2022/04/04 10:27:59;;;;;;;10.80;8.05;;;;;;;16.43;29.78;99927.00;6272145;22;20061;-85
2022/04/04 10:30:40;;;;;;;6.60;5.75;;;;;;;16.19;29.38;99814.69;6272782;22;20395;-86
2022/04/04 10:33:26;;;;;;;6.18;5.68;;;;;;;16.87;28.68;99922.84;6273754;22;20007;-87
2022/04/04 10:36:10;;;;;;;7.18;6.28;;;;;;;16.51;29.17;99828.16;6273555;22;19999;-86
2022/04/04 10:38:45;;;;;;;6.63;5.65;;;;;;;17.45;28.40;99907.66;6288594;22;20003;-86
2022/04/04 10:41:14;;;;;;;7.75;6.07;;;;;;;16.92;28.36;99824.34;6293738;22;19983;-86
2022/04/04 10:43:45;;;;;;;6.53;5.93;;;;;;;17.64;28.07;99890.69;6287593;22;20008;-86
2022/04/04 10:46:12;;;;;;;6.43;5.77;;;;;;;16.88;27.99;99762.63;6286511;22;20015;-87
2022/04/04 10:48:38;;;;;;;7.30;6.13;;;;;;;17.29;28.10;99828.09;6276171;22;20640;-86
2022/04/04 10:51:17;;;;;;;6.15;5.55;;;;;;;17.91;27.78;99885.22;6275492;22;20007;-87
2022/04/04 10:53:51;;;;;;;7.20;5.85;;;;;;;18.12;28.13;99892.84;6273714;22;20023;-86
2022/04/04 10:56:19;;;;;;;6.38;5.75;;;;;;;18.16;27.51;99878.03;6272180;22;20000;-86
2022/04/04 10:58:44;;;;;;;6.95;6.25;;;;;;;18.09;27.65;99829.16;6272192;22;20000;-86
2022/04/04 11:01:17;;;;;;;8.02;5.63;;;;;;;18.29;27.28;99829.78;6272818;22;20456;-85
2022/04/04 11:03:48;;;;;;;6.32;5.78;;;;;;;18.93;26.91;99865.97;6273301;22;20007;-85
2022/04/04 11:09:19;;;;;;;7.80;7.10;;;;;;;18.87;26.60;99815.19;6274796;22;20041;-85
2022/04/04 11:11:47;;;;;;;6.88;6.28;;;;;;;18.85;26.77;99806.59;6272159;22;20046;-87
2022/04/04 11:14:14;;;;;;;6.75;5.35;;;;;;;19.04;26.46;99808.19;6273523;22;20069;-86
2022/04/04 11:20:03;;;;;;;7.95;6.22;;;;;;;19.42;26.41;99804.38;6273695;22;20026;-86
2022/04/04 11:22:36;;;;;;;7.78;6.47;;;;;;;19.72;26.30;99831.13;6272149;22;20456;-84
2022/04/04 11:25:07;;;;;;;8.48;5.95;;;;;;;19.32;26.35;99800.41;6298263;22;20003;-85
2022/04/04 11:27:35;;;;;;;6.53;5.93;;;;;;;18.60;26.27;99723.75;6272790;22;20007;-85
2022/04/04 11:30:13;;;;;;;6.43;5.82;;;;;;;18.46;26.66;99740.97;6274275;22;20002;-85
2022/04/04 11:32:40;;;;;;;6.78;6.15;;;;;;;18.33;27.05;99748.13;6274629;22;20000;-85
2022/04/04 11:35:18;;;;;;;6.60;5.90;;;;;;;18.68;27.06;99823.25;6277119;22;19991;-85
2022/04/04 11:37:54;;;;;;;9.73;8.73;;;;;;;18.40;27.31;99847.78;6297189;22;19994;-85